createdAt,value
2022-12-01T00:01:22.065Z,88.35
2022-12-01T00:03:50.372Z,88.23
2022-12-01T00:06:19.772Z,87.77
2022-12-01T00:09:03.313Z,87.84
2022-12-01T00:11:33.422Z,87.45
2022-12-01T00:14:01.540Z,86.85
2022-12-01T00:16:29.826Z,86.90
2022-12-01T00:18:58.214Z,87.51
2022-12-01T00:21:27.980Z,86.61
2022-12-01T00:23:57.744Z,86.40
2022-12-01T00:26:27.265Z,86.61
2022-12-01T00:28:58.466Z,87.05
2022-12-01T00:31:27.324Z,87.16
2022-12-01T00:33:55.845Z,87.57
2022-12-01T00:36:24.928Z,86.82
2022-12-01T00:38:54.520Z,86.57
2022-12-01T00:41:23.302Z,86.68
2022-12-01T00:43:52.119Z,86.57
2022-12-01T00:46:21.707Z,85.97
2022-12-01T00:48:49.805Z,86.05
2022-12-01T00:51:17.864Z,86.04
2022-12-01T00:53:46.078Z,86.67
2022-12-01T00:56:15.002Z,87.09
2022-12-01T00:58:42.953Z,86.88
2022-12-01T01:01:10.928Z,84.75
2022-12-01T01:03:40.273Z,83.86
2022-12-01T01:06:09.947Z,84.73
2022-12-01T01:08:38.400Z,85.87
2022-12-01T01:11:07.311Z,85.79
2022-12-01T01:13:35.822Z,85.70
2022-12-01T01:16:06.274Z,85.58
2022-12-01T01:18:35.358Z,85.26
2022-12-01T01:21:07.016Z,82.87
2022-12-01T01:23:35.337Z,82.57
2022-12-01T01:26:05.425Z,83.10
2022-12-01T01:28:33.850Z,83.40
2022-12-01T01:31:06.544Z,83.86
2022-12-01T01:33:34.789Z,84.27
2022-12-01T01:36:05.321Z,84.39
2022-12-01T01:38:34.628Z,85.12
2022-12-01T01:41:02.765Z,85.13
2022-12-01T01:43:46.554Z,85.32
2022-12-01T01:46:17.131Z,85.05
2022-12-01T01:48:49.593Z,84.90
2022-12-01T01:51:23.700Z,84.96
2022-12-01T01:53:56.515Z,84.02
2022-12-01T01:56:25.119Z,84.94
2022-12-01T01:58:54.065Z,84.20
2022-12-01T02:01:22.150Z,84.36
2022-12-01T02:03:54.424Z,83.86
2022-12-01T02:06:24.783Z,84.30
2022-12-01T02:08:52.915Z,84.86
2022-12-01T02:11:48.719Z,85.32
2022-12-01T02:14:48.914Z,84.94
2022-12-01T02:17:27.652Z,84.70
2022-12-01T02:20:14.083Z,84.63
2022-12-01T02:22:54.038Z,84.95
2022-12-01T02:25:35.927Z,84.53
2022-12-01T02:28:35.370Z,84.60
2022-12-01T02:31:11.820Z,84.32
2022-12-01T02:33:48.286Z,83.55
2022-12-01T02:36:21.125Z,83.96
2022-12-01T02:38:55.744Z,84.05
2022-12-01T02:41:29.675Z,83.99
2022-12-01T02:44:04.429Z,84.71
2022-12-01T02:46:37.750Z,85.02
2022-12-01T02:49:11.321Z,85.16
2022-12-01T02:51:44.937Z,84.66
2022-12-01T02:54:15.908Z,84.77
2022-12-01T02:56:46.253Z,84.80
2022-12-01T02:59:15.968Z,84.41
2022-12-01T03:01:59.434Z,85.04
2022-12-01T03:04:47.381Z,84.79
2022-12-01T03:07:35.207Z,84.87
2022-12-01T03:10:13.883Z,85.09
2022-12-01T03:12:54.493Z,85.18
2022-12-01T03:15:32.450Z,84.58
2022-12-01T03:18:10.621Z,84.61
2022-12-01T03:20:43.728Z,84.23
2022-12-01T03:23:16.186Z,84.17
2022-12-01T03:25:49.227Z,84.37
2022-12-01T03:28:22.385Z,84.72
2022-12-01T03:30:53.827Z,84.65
2022-12-01T03:33:28.222Z,84.69
2022-12-01T03:36:01.946Z,84.47
2022-12-01T03:38:32.030Z,84.67
2022-12-01T03:41:03.163Z,84.75
2022-12-01T03:43:35.482Z,85.77
2022-12-01T03:46:09.837Z,85.27
2022-12-01T03:48:40.562Z,85.27
2022-12-01T03:51:15.270Z,85.80
2022-12-01T03:53:52.753Z,85.70
2022-12-01T03:56:23.597Z,85.01
2022-12-01T03:58:56.905Z,84.92
2022-12-01T04:01:26.601Z,85.20
2022-12-01T04:03:55.991Z,85.71
2022-12-01T04:06:24.079Z,85.56
2022-12-01T04:08:52.101Z,84.73
2022-12-01T04:11:37.322Z,85.30
2022-12-01T04:14:05.281Z,85.81
2022-12-01T04:16:33.236Z,85.72
2022-12-01T04:19:02.651Z,86.11
2022-12-01T04:21:30.589Z,86.17
2022-12-01T04:24:01.343Z,86.24
2022-12-01T04:26:29.936Z,85.81
2022-12-01T04:28:57.919Z,85.91
2022-12-01T04:31:25.952Z,86.58
2022-12-01T04:33:55.951Z,86.35
2022-12-01T04:36:25.765Z,86.14
2022-12-01T04:38:54.013Z,86.20
2022-12-01T04:41:22.067Z,86.76
2022-12-01T04:43:49.988Z,87.54
2022-12-01T04:46:18.018Z,87.26
2022-12-01T04:48:46.150Z,87.27
2022-12-01T04:51:14.493Z,87.37
2022-12-01T04:53:43.775Z,87.50
2022-12-01T04:56:11.922Z,87.50
2022-12-01T04:58:40.154Z,87.05
2022-12-01T05:01:09.970Z,87.25
2022-12-01T05:03:39.066Z,87.58
2022-12-01T05:06:09.389Z,87.78
2022-12-01T05:08:37.259Z,87.47
2022-12-01T05:11:07.919Z,87.38
2022-12-01T05:13:37.511Z,87.17
2022-12-01T05:16:06.761Z,87.75
2022-12-01T05:18:34.801Z,87.74
2022-12-01T05:21:03.976Z,87.99
2022-12-01T05:23:33.592Z,86.22
2022-12-01T05:26:02.683Z,86.18
2022-12-01T05:28:32.428Z,86.69
2022-12-01T05:31:00.896Z,86.50
2022-12-01T05:33:30.435Z,85.94
2022-12-01T05:35:58.495Z,86.05
2022-12-01T05:38:26.527Z,86.25
2022-12-01T05:40:56.411Z,86.58
2022-12-01T05:43:29.102Z,87.17
2022-12-01T05:45:59.313Z,87.31
2022-12-01T05:48:27.410Z,86.84
2022-12-01T05:50:55.406Z,87.07
2022-12-01T05:53:23.408Z,87.07
2022-12-01T05:55:53.820Z,86.68
2022-12-01T05:58:21.902Z,86.89
2022-12-01T06:00:49.733Z,87.28
2022-12-01T06:03:20.915Z,87.12
2022-12-01T06:05:48.795Z,86.44
2022-12-01T06:08:16.929Z,86.58
2022-12-01T06:10:45.583Z,87.38
2022-12-01T06:13:13.670Z,87.16
2022-12-01T06:15:41.573Z,86.77
2022-12-01T06:18:09.687Z,86.18
2022-12-01T06:20:38.902Z,86.12
2022-12-01T06:23:06.820Z,86.19
2022-12-01T06:25:34.647Z,86.10
2022-12-01T06:28:02.576Z,86.76
2022-12-01T06:30:30.385Z,86.94
2022-12-01T06:32:58.312Z,86.60
2022-12-01T06:35:26.246Z,86.67
2022-12-01T06:37:55.641Z,86.25
2022-12-01T06:40:23.621Z,86.32
2022-12-01T06:42:51.559Z,86.66
2022-12-01T06:45:19.512Z,87.46
2022-12-01T06:47:48.465Z,87.21
2022-12-01T06:50:16.396Z,87.11
2022-12-01T06:52:44.317Z,87.67
2022-12-01T06:55:13.845Z,86.81
2022-12-01T06:57:43.291Z,86.55
2022-12-01T07:00:16.227Z,86.17
2022-12-01T07:02:44.568Z,86.54
2022-12-01T07:05:12.506Z,87.32
2022-12-01T07:07:41.052Z,87.10
2022-12-01T07:10:11.808Z,87.21
2022-12-01T07:12:41.295Z,85.94
2022-12-01T07:15:10.182Z,86.20
2022-12-01T07:17:38.042Z,86.38
2022-12-01T07:20:07.073Z,86.63
2022-12-01T07:22:36.161Z,87.34
2022-12-01T07:25:04.074Z,86.99
2022-12-01T07:27:32.281Z,86.95
2022-12-01T07:30:01.508Z,86.66
2022-12-01T07:32:29.433Z,86.38
2022-12-01T07:34:57.330Z,86.69
2022-12-01T07:37:25.162Z,86.31
2022-12-01T07:39:53.084Z,85.91
2022-12-01T07:42:20.993Z,86.08
2022-12-01T07:44:48.843Z,86.36
2022-12-01T07:47:18.099Z,86.80
2022-12-01T07:49:45.970Z,86.18
2022-12-01T07:52:14.250Z,86.62
2022-12-01T07:54:42.194Z,87.06
2022-12-01T07:57:10.169Z,87.47
2022-12-01T07:59:38.068Z,87.23
2022-12-01T08:02:05.995Z,86.30
2022-12-01T08:04:35.298Z,86.74
2022-12-01T08:07:03.222Z,86.93
2022-12-01T08:09:31.423Z,86.53
2022-12-01T08:11:59.254Z,86.67
2022-12-01T08:14:27.094Z,86.61
2022-12-01T08:16:55.065Z,86.89
2022-12-01T08:19:23.003Z,86.44
2022-12-01T08:21:52.274Z,86.68
2022-12-01T08:24:20.217Z,86.74
2022-12-01T08:26:49.631Z,84.60
2022-12-01T08:29:20.369Z,85.71
2022-12-01T08:31:48.711Z,85.61
2022-12-01T08:34:16.830Z,85.54
2022-12-01T08:36:44.715Z,85.99
2022-12-01T08:39:14.138Z,86.46
2022-12-01T08:41:42.234Z,86.14
2022-12-01T08:44:11.205Z,85.96
2022-12-01T08:46:39.446Z,86.30
2022-12-01T08:49:08.089Z,85.56
2022-12-01T08:51:36.429Z,85.48
2022-12-01T08:54:04.710Z,85.71
2022-12-01T08:56:36.055Z,85.88
2022-12-01T08:59:04.631Z,84.50
2022-12-01T09:01:33.909Z,84.94
2022-12-01T09:04:08.511Z,85.36
2022-12-01T09:06:40.782Z,85.62
2022-12-01T09:09:09.275Z,84.64
2022-12-01T09:11:38.987Z,85.07
2022-12-01T09:14:07.225Z,85.20
2022-12-01T09:16:35.193Z,85.27
2022-12-01T09:19:03.426Z,85.76
2022-12-01T09:21:33.043Z,85.65
2022-12-01T09:24:01.666Z,85.73
2022-12-01T09:26:30.142Z,85.58
2022-12-01T09:29:01.341Z,85.21
2022-12-01T09:31:29.549Z,85.72
2022-12-01T09:33:58.858Z,85.24
2022-12-01T09:36:27.806Z,84.93
2022-12-01T09:38:55.715Z,85.11
2022-12-01T09:41:29.224Z,84.91
2022-12-01T09:44:05.816Z,84.93
2022-12-01T09:46:38.488Z,84.77
2022-12-01T09:49:14.336Z,84.94
2022-12-01T09:51:42.303Z,83.95
2022-12-01T09:54:13.861Z,84.12
2022-12-01T09:56:45.847Z,83.71
2022-12-01T09:59:20.654Z,84.06
2022-12-01T10:01:53.894Z,84.21
2022-12-01T10:04:28.015Z,84.42
2022-12-01T10:07:00.336Z,84.72
2022-12-01T10:09:36.138Z,84.87
2022-12-01T10:12:14.785Z,85.13
2022-12-01T10:14:45.849Z,84.87
2022-12-01T10:17:24.258Z,84.42
2022-12-01T10:19:58.533Z,84.82
2022-12-01T10:22:56.836Z,84.18
2022-12-01T10:25:27.239Z,84.27
2022-12-01T10:28:07.962Z,84.45
2022-12-01T10:30:47.998Z,82.35
2022-12-01T10:33:24.828Z,82.65
2022-12-01T10:35:52.789Z,82.25
2022-12-01T10:38:28.205Z,83.29
2022-12-01T10:40:58.629Z,81.99
2022-12-01T10:43:33.840Z,81.86
2022-12-01T10:46:09.660Z,81.86
2022-12-01T10:48:54.729Z,81.99
2022-12-01T10:51:23.054Z,82.39
2022-12-01T10:53:51.309Z,83.26
2022-12-01T10:56:21.668Z,83.66
2022-12-01T10:58:52.934Z,83.67
2022-12-01T11:01:25.911Z,83.30
2022-12-01T11:03:57.446Z,82.50
2022-12-01T11:06:29.440Z,82.43
2022-12-01T11:09:00.438Z,82.99
2022-12-01T11:11:32.834Z,82.79
2022-12-01T11:14:03.767Z,82.87
2022-12-01T11:16:42.772Z,82.15
2022-12-01T11:19:25.314Z,82.64
2022-12-01T11:21:56.993Z,82.58
2022-12-01T11:24:44.126Z,81.90
2022-12-01T11:27:18.492Z,81.60
2022-12-01T11:29:49.384Z,81.82
2022-12-01T11:32:22.859Z,81.99
2022-12-01T11:34:54.625Z,81.23
2022-12-01T11:37:24.965Z,80.41
2022-12-01T11:39:53.738Z,81.61
2022-12-01T11:42:27.970Z,80.86
2022-12-01T11:44:59.047Z,80.86
2022-12-01T11:47:29.305Z,80.36
2022-12-01T11:49:59.206Z,79.90
2022-12-01T11:52:31.250Z,80.61
2022-12-01T11:55:08.440Z,80.83
2022-12-01T11:57:40.433Z,80.14
2022-12-01T12:00:15.247Z,81.07
2022-12-01T12:02:59.567Z,79.85
2022-12-01T12:06:31.920Z,79.65
2022-12-01T12:09:18.570Z,79.24
2022-12-01T12:11:54.602Z,80.11
2022-12-01T12:14:39.622Z,80.01
2022-12-01T12:17:20.989Z,80.90
2022-12-01T12:20:08.159Z,80.42
2022-12-01T12:22:52.242Z,80.04
2022-12-01T12:25:31.276Z,78.70
2022-12-01T12:28:16.967Z,79.36
2022-12-01T12:30:53.141Z,79.44
2022-12-01T12:33:37.431Z,79.40
2022-12-01T12:36:16.346Z,79.35
2022-12-01T12:38:58.273Z,79.02
2022-12-01T12:41:35.049Z,78.04
2022-12-01T12:44:21.701Z,78.86
2022-12-01T12:46:59.016Z,79.48
2022-12-01T12:49:37.443Z,79.06
2022-12-01T12:52:11.806Z,78.95
2022-12-01T12:54:53.027Z,78.96
2022-12-01T13:00:20.931Z,79.78
2022-12-01T13:02:53.323Z,80.14
2022-12-01T13:05:29.011Z,79.71
2022-12-01T13:08:20.534Z,80.03
2022-12-01T13:10:56.128Z,79.18
2022-12-01T13:13:30.138Z,79.61
2022-12-01T13:16:00.771Z,80.60
2022-12-01T13:18:35.349Z,80.12
2022-12-01T13:21:05.957Z,80.02
2022-12-01T13:23:39.314Z,79.69
2022-12-01T13:26:10.058Z,80.21
2022-12-01T13:28:43.365Z,80.88
2022-12-01T13:31:16.921Z,79.50
2022-12-01T13:33:55.871Z,80.50
2022-12-01T13:39:20.762Z,80.91
2022-12-01T13:41:59.043Z,80.26
2022-12-01T13:44:29.281Z,81.32
2022-12-01T13:47:00.065Z,80.26
2022-12-01T13:49:36.992Z,80.23
2022-12-01T13:52:28.138Z,80.62
2022-12-01T13:55:24.389Z,80.65
2022-12-01T13:58:42.142Z,79.88
2022-12-01T14:01:49.267Z,80.80
2022-12-01T14:04:27.409Z,80.85
2022-12-01T14:07:20.518Z,80.71
2022-12-01T14:09:50.092Z,80.60
2022-12-01T14:12:23.136Z,79.78
2022-12-01T14:14:55.838Z,80.80
2022-12-01T14:17:30.257Z,79.58
2022-12-01T14:20:08.397Z,80.57
2022-12-01T14:22:40.147Z,80.09
2022-12-01T14:25:25.709Z,80.57
2022-12-01T14:27:57.727Z,80.08
2022-12-01T14:31:02.978Z,80.74
2022-12-01T14:33:52.605Z,81.02
2022-12-01T14:36:32.222Z,81.48
2022-12-01T14:39:14.730Z,81.94
2022-12-01T14:41:48.461Z,82.76
2022-12-01T14:44:24.141Z,82.68
2022-12-01T14:46:57.701Z,83.59
2022-12-01T14:49:29.508Z,82.88
2022-12-01T14:52:03.858Z,83.75
2022-12-01T14:54:36.028Z,84.07
2022-12-01T14:57:09.044Z,83.82
2022-12-01T14:59:41.623Z,84.66
2022-12-01T15:02:12.391Z,84.59
2022-12-01T15:05:08.817Z,84.54
2022-12-01T15:07:38.930Z,85.65
2022-12-01T15:10:08.383Z,84.49
2022-12-01T15:12:36.435Z,84.42
2022-12-01T15:15:22.432Z,85.12
2022-12-01T15:17:53.017Z,84.82
2022-12-01T15:20:36.334Z,83.19
2022-12-01T15:23:18.170Z,83.77
2022-12-01T15:25:49.706Z,83.17
2022-12-01T15:28:20.251Z,83.73
2022-12-01T15:30:52.058Z,83.27
2022-12-01T15:33:27.647Z,82.23
2022-12-01T15:35:57.814Z,83.59
2022-12-01T15:38:30.226Z,83.35
2022-12-01T15:41:27.909Z,83.11
2022-12-01T15:43:56.205Z,83.80
2022-12-01T15:46:30.577Z,83.63
2022-12-01T15:49:08.726Z,84.39
2022-12-01T15:51:36.907Z,84.23
2022-12-01T15:54:05.486Z,83.43
2022-12-01T15:56:37.179Z,83.37
2022-12-01T15:59:10.450Z,84.57
2022-12-01T16:01:42.091Z,83.68
2022-12-01T16:04:19.620Z,84.45
2022-12-01T16:06:58.714Z,84.43
2022-12-01T16:09:31.531Z,85.35
2022-12-01T16:12:22.797Z,84.67
2022-12-01T16:14:54.691Z,84.30
2022-12-01T16:17:25.640Z,83.45
2022-12-01T16:20:33.088Z,84.38
2022-12-01T16:23:03.904Z,84.11
2022-12-01T16:25:36.204Z,83.83
2022-12-01T16:28:06.392Z,83.81
2022-12-01T16:30:46.613Z,84.11
2022-12-01T16:33:55.913Z,84.03
2022-12-01T16:36:27.889Z,84.19
2022-12-01T16:38:57.211Z,84.73
2022-12-01T16:41:37.908Z,84.07
2022-12-01T16:44:27.582Z,85.02
2022-12-01T16:46:57.349Z,85.38
2022-12-01T16:49:25.398Z,84.50
2022-12-01T16:51:56.551Z,85.18
2022-12-01T16:54:28.394Z,85.10
2022-12-01T16:56:56.252Z,85.12
2022-12-01T16:59:24.853Z,85.55
2022-12-01T17:01:52.765Z,85.17
2022-12-01T17:04:20.656Z,85.03
2022-12-01T17:06:48.481Z,84.94
2022-12-01T17:09:17.793Z,85.00
2022-12-01T17:11:45.634Z,84.79
2022-12-01T17:14:13.688Z,84.94
2022-12-01T17:16:41.629Z,84.19
2022-12-01T17:19:09.462Z,83.74
2022-12-01T17:21:37.410Z,83.94
2022-12-01T17:24:05.612Z,85.16
2022-12-01T17:26:35.058Z,84.83
2022-12-01T17:29:03.340Z,84.72
2022-12-01T17:31:31.274Z,84.92
2022-12-01T17:33:59.152Z,85.24
2022-12-01T17:36:27.081Z,84.68
2022-12-01T17:38:55.310Z,85.25
2022-12-01T17:41:24.933Z,84.47
2022-12-01T17:43:54.130Z,85.07
2022-12-01T17:46:22.076Z,85.48
2022-12-01T17:48:50.028Z,84.75
2022-12-01T17:51:18.049Z,84.25
2022-12-01T17:53:45.928Z,85.14
2022-12-01T17:56:16.063Z,84.65
2022-12-01T17:58:44.096Z,85.78
2022-12-01T18:01:16.835Z,85.56
2022-12-01T18:03:45.501Z,84.78
2022-12-01T18:06:13.719Z,84.82
2022-12-01T18:08:42.459Z,84.74
2022-12-01T18:11:14.131Z,84.65
2022-12-01T18:13:43.862Z,85.91
2022-12-01T18:16:16.683Z,85.30
2022-12-01T18:18:44.619Z,85.65
2022-12-01T18:21:15.095Z,85.92
2022-12-01T18:23:44.107Z,85.92
2022-12-01T18:26:15.943Z,85.60
2022-12-01T18:28:44.849Z,85.51
2022-12-01T18:31:17.472Z,85.52
2022-12-01T18:33:46.361Z,86.40
2022-12-01T18:36:16.101Z,86.50
2022-12-01T18:38:44.354Z,87.00
2022-12-01T18:41:12.291Z,86.70
2022-12-01T18:43:40.337Z,86.40
2022-12-01T18:46:08.691Z,86.19
2022-12-01T18:48:38.065Z,86.88
2022-12-01T18:51:08.130Z,87.33
2022-12-01T18:53:36.602Z,87.44
2022-12-01T18:56:05.311Z,87.99
2022-12-01T18:58:33.881Z,87.10
2022-12-01T19:01:02.750Z,86.50
2022-12-01T19:03:31.075Z,87.18
2022-12-01T19:06:00.349Z,87.77
2022-12-01T19:08:28.194Z,87.80
2022-12-01T19:11:00.418Z,86.87
2022-12-01T19:13:28.847Z,86.64
2022-12-01T19:15:56.815Z,86.61
2022-12-01T19:18:25.262Z,87.42
2022-12-01T19:20:53.143Z,87.86
2022-12-01T19:23:22.374Z,87.75
2022-12-01T19:25:50.270Z,87.37
2022-12-01T19:28:18.111Z,87.32
2022-12-01T19:30:48.302Z,87.74
2022-12-01T19:33:17.336Z,87.59
2022-12-01T19:35:45.434Z,87.63
2022-12-01T19:38:13.461Z,88.12
2022-12-01T19:40:43.218Z,88.35
2022-12-01T19:43:11.217Z,88.23
2022-12-01T19:45:39.399Z,88.41
2022-12-01T19:48:08.065Z,88.92
2022-12-01T19:50:36.750Z,88.67
2022-12-01T19:53:05.069Z,88.92
2022-12-01T19:55:33.203Z,88.91
2022-12-01T19:58:02.542Z,89.39
2022-12-01T20:00:30.446Z,89.17
2022-12-01T20:03:00.782Z,89.28
2022-12-01T20:05:28.686Z,89.90
2022-12-01T20:07:56.643Z,89.48
2022-12-01T20:10:24.516Z,89.77
2022-12-01T20:12:52.950Z,89.45
2022-12-01T20:15:22.505Z,90.16
2022-12-01T20:17:50.465Z,89.38
2022-12-01T20:20:18.501Z,89.02
2022-12-01T20:22:47.962Z,89.62
2022-12-01T20:25:15.903Z,89.48
2022-12-01T20:27:45.462Z,89.56
2022-12-01T20:30:15.004Z,89.27
2022-12-01T20:32:44.644Z,89.81
2022-12-01T20:35:13.205Z,90.19
2022-12-01T20:37:44.610Z,89.80
2022-12-01T20:40:13.458Z,89.90
2022-12-01T20:42:41.558Z,89.51
2022-12-01T20:45:09.499Z,89.57
2022-12-01T20:47:37.388Z,89.60
2022-12-01T20:50:07.509Z,89.06
2022-12-01T20:52:39.099Z,90.18
2022-12-01T20:55:07.926Z,89.31
2022-12-01T20:57:36.514Z,89.77
2022-12-01T21:00:06.193Z,90.54
2022-12-01T21:02:34.224Z,90.14
2022-12-01T21:05:02.547Z,90.16
2022-12-01T21:07:32.122Z,90.12
2022-12-01T21:10:00.218Z,89.71
2022-12-01T21:12:47.881Z,90.13
2022-12-01T21:15:22.122Z,90.36
2022-12-01T21:17:54.206Z,90.38
2022-12-01T21:20:28.149Z,90.04
2022-12-01T21:23:02.427Z,90.74
2022-12-01T21:25:31.080Z,90.83
2022-12-01T21:28:04.893Z,90.90
2022-12-01T21:30:34.123Z,91.23
2022-12-01T21:33:20.726Z,90.61
2022-12-01T21:35:51.759Z,91.51
2022-12-01T21:38:22.245Z,91.04
2022-12-01T21:40:50.283Z,90.72
2022-12-01T21:43:21.857Z,90.29
2022-12-01T21:45:53.121Z,90.81
2022-12-01T21:48:24.048Z,90.03
2022-12-01T21:50:58.431Z,90.48
2022-12-01T21:53:34.361Z,90.50
2022-12-01T21:56:02.988Z,90.32
2022-12-01T21:58:35.260Z,90.79
2022-12-01T22:01:09.079Z,90.67
2022-12-01T22:03:44.487Z,90.48
2022-12-01T22:06:29.696Z,91.10
2022-12-01T22:09:03.545Z,91.17
2022-12-01T22:11:32.485Z,91.49
2022-12-01T22:14:06.349Z,91.37
2022-12-01T22:16:36.276Z,90.92
2022-12-01T22:19:23.314Z,90.73
2022-12-01T22:22:00.768Z,91.10
2022-12-01T22:24:34.347Z,91.35
2022-12-01T22:27:15.878Z,90.91
2022-12-01T22:29:46.158Z,91.47
2022-12-01T22:32:34.138Z,91.45
2022-12-01T22:35:19.055Z,91.49
2022-12-01T22:37:49.607Z,91.50
2022-12-01T22:40:35.103Z,91.25
2022-12-01T22:43:25.330Z,91.00
2022-12-01T22:46:03.371Z,90.94
2022-12-01T22:48:36.925Z,91.49
2022-12-01T22:51:21.255Z,91.25
2022-12-01T22:53:49.577Z,91.99
2022-12-01T22:56:29.414Z,92.12
2022-12-01T22:58:57.658Z,91.89
2022-12-01T23:01:28.388Z,92.25
2022-12-01T23:04:21.065Z,92.49
2022-12-01T23:07:08.204Z,91.90
2022-12-01T23:09:39.130Z,91.80
2022-12-01T23:12:23.005Z,91.86
2022-12-01T23:14:53.704Z,91.93
2022-12-01T23:17:24.076Z,91.81
2022-12-01T23:19:54.402Z,91.64
2022-12-01T23:22:22.390Z,91.93
2022-12-01T23:24:50.640Z,92.18
2022-12-01T23:27:20.030Z,91.90
2022-12-01T23:29:47.909Z,91.80
2022-12-01T23:32:15.772Z,92.12
2022-12-01T23:34:43.560Z,92.47
2022-12-01T23:37:29.129Z,91.97
2022-12-01T23:39:57.359Z,92.06
2022-12-01T23:42:26.990Z,91.67
2022-12-01T23:44:54.953Z,91.57
2022-12-01T23:47:26.246Z,91.51
2022-12-01T23:49:59.266Z,91.27
2022-12-01T23:52:31.866Z,90.98
2022-12-01T23:55:00.313Z,91.39
2022-12-01T23:57:31.254Z,91.71
